createdAt,value
2018-12-16T00:00:16.056Z,-986.98
2018-12-16T00:01:16.159Z,-980.89
2018-12-16T00:02:16.200Z,-984.82
2018-12-16T00:03:16.287Z,-986.37
2018-12-16T00:04:16.323Z,-986.57
2018-12-16T00:05:16.472Z,-984.73
2018-12-16T00:06:16.707Z,-983.85
2018-12-16T00:07:16.536Z,-984.37
2018-12-16T00:08:16.627Z,-985.40
2018-12-16T00:09:16.676Z,-987.62
2018-12-16T00:10:16.729Z,-984.45
2018-12-16T00:11:16.852Z,-992.50
2018-12-16T00:12:16.898Z,-983.99
2018-12-16T00:13:17.002Z,-986.17
2018-12-16T00:14:17.018Z,-988.23
2018-12-16T00:15:17.101Z,-989.35
2018-12-16T00:16:17.190Z,-986.33
2018-12-16T00:17:17.230Z,-987.44
2018-12-16T00:18:17.327Z,-985.76
2018-12-16T00:19:17.404Z,-986.13
2018-12-16T00:20:17.472Z,-986.63
2018-12-16T00:21:18.485Z,-985.48
2018-12-16T00:22:17.635Z,-988.21
2018-12-16T00:23:17.684Z,-989.55
2018-12-16T00:24:17.777Z,-983.90
2018-12-16T00:25:17.836Z,-985.56
2018-12-16T00:26:17.932Z,-986.12
2018-12-16T00:27:17.975Z,-986.23
2018-12-16T00:28:18.031Z,-984.20
2018-12-16T00:29:18.153Z,-984.59
2018-12-16T00:30:18.305Z,-986.04
2018-12-16T00:31:18.326Z,-986.34
2018-12-16T00:32:18.325Z,-983.87
2018-12-16T00:33:18.408Z,-984.08
2018-12-16T00:34:18.512Z,-985.89
2018-12-16T00:35:18.557Z,-987.55
2018-12-16T00:36:18.678Z,-987.69
2018-12-16T00:37:18.700Z,-987.22
2018-12-16T00:38:22.879Z,-989.42
2018-12-16T00:39:18.854Z,-990.11
2018-12-16T00:40:18.907Z,-986.03
2018-12-16T00:41:19.067Z,-984.35
2018-12-16T00:42:19.046Z,-985.64
2018-12-16T00:43:19.130Z,-987.74
2018-12-16T00:44:19.201Z,-989.14
2018-12-16T00:45:19.269Z,-982.68
2018-12-16T00:46:19.410Z,-989.19
2018-12-16T00:47:19.391Z,-985.01
2018-12-16T00:48:19.477Z,-988.44
2018-12-16T00:49:19.540Z,-992.16
2018-12-16T00:50:19.610Z,-988.15
2018-12-16T00:51:19.706Z,-986.12
2018-12-16T00:52:19.789Z,-987.38
2018-12-16T00:53:19.859Z,-991.72
2018-12-16T00:54:19.945Z,-989.42
2018-12-16T00:55:19.928Z,-986.03
2018-12-16T00:56:20.040Z,-990.79
2018-12-16T00:57:20.098Z,-991.13
2018-12-16T00:58:20.206Z,-992.78
2018-12-16T00:59:20.260Z,-989.21
2018-12-16T01:00:20.372Z,-992.33
2018-12-16T01:01:20.381Z,-989.73
2018-12-16T01:02:20.478Z,-989.82
2018-12-16T01:03:20.608Z,-988.54
2018-12-16T01:04:20.606Z,-987.97
2018-12-16T01:05:20.656Z,-992.41
2018-12-16T01:06:20.736Z,-937.57
2018-12-16T01:07:20.807Z,-988.22
2018-12-16T01:08:20.881Z,-989.51
2018-12-16T01:09:20.967Z,-993.09
2018-12-16T01:10:21.026Z,-936.07
2018-12-16T01:11:21.160Z,-992.91
2018-12-16T01:12:21.190Z,-941.84
2018-12-16T01:13:21.253Z,-991.30
2018-12-16T01:14:21.310Z,-941.59
2018-12-16T01:15:21.360Z,-995.65
2018-12-16T01:16:21.452Z,-936.81
2018-12-16T01:17:21.493Z,-990.93
2018-12-16T01:18:21.596Z,-938.08
2018-12-16T01:19:21.755Z,-993.97
2018-12-16T01:20:21.696Z,-991.03
2018-12-16T01:21:21.776Z,-998.77
2018-12-16T01:22:21.842Z,-993.14
2018-12-16T01:23:21.919Z,-996.88
2018-12-16T01:24:22.019Z,-997.63
2018-12-16T01:25:22.072Z,-994.05
2018-12-16T01:26:22.140Z,-992.76
2018-12-16T01:27:22.309Z,-994.59
2018-12-16T01:28:22.291Z,-992.21
2018-12-16T01:29:22.374Z,-992.37
2018-12-16T01:30:22.426Z,-994.37
2018-12-16T01:31:22.493Z,-991.89
2018-12-16T01:32:22.576Z,-996.15
2018-12-16T01:33:22.635Z,-995.90
2018-12-16T01:34:22.702Z,-995.23
2018-12-16T01:35:22.828Z,-993.87
2018-12-16T01:36:22.868Z,-990.58
2018-12-16T01:37:22.960Z,-996.16
2018-12-16T01:38:23.001Z,-991.35
2018-12-16T01:39:23.065Z,-988.23
2018-12-16T01:40:23.124Z,-988.53
2018-12-16T01:41:23.211Z,-943.46
2018-12-16T01:42:23.307Z,-991.47
2018-12-16T01:43:23.361Z,-996.34
2018-12-16T01:44:23.532Z,-995.13
2018-12-16T01:45:23.488Z,-992.70
2018-12-16T01:46:23.813Z,-993.46
2018-12-16T01:47:23.667Z,-991.90
2018-12-16T01:48:23.707Z,-995.01
2018-12-16T01:49:23.796Z,-993.51
2018-12-16T01:50:23.853Z,-993.95
2018-12-16T01:51:23.896Z,-993.72
2018-12-16T01:52:24.128Z,-987.45
2018-12-16T01:53:24.054Z,-994.85
2018-12-16T01:54:24.142Z,-992.04
2018-12-16T01:55:24.185Z,-998.97
2018-12-16T01:56:24.270Z,-999.36
2018-12-16T01:57:24.380Z,-996.03
2018-12-16T01:58:24.426Z,-994.64
2018-12-16T01:59:24.513Z,-998.11
2018-12-16T02:00:24.620Z,-991.75
2018-12-16T02:01:24.601Z,-994.44
2018-12-16T02:02:24.717Z,-991.40
2018-12-16T02:03:24.760Z,-993.45
2018-12-16T02:04:24.847Z,-996.91
2018-12-16T02:05:24.901Z,-995.39
2018-12-16T02:06:24.968Z,-999.21
2018-12-16T02:07:25.050Z,-995.99
2018-12-16T02:08:26.173Z,-992.31
2018-12-16T02:09:25.177Z,-999.24
2018-12-16T02:10:25.232Z,-990.91
2018-12-16T02:11:25.304Z,-993.13
2018-12-16T02:12:25.398Z,-993.47
2018-12-16T02:13:25.431Z,-992.85
2018-12-16T02:14:25.542Z,-1000.71
2018-12-16T02:15:25.604Z,-997.36
2018-12-16T02:16:25.693Z,-995.68
2018-12-16T02:17:25.840Z,-993.11
2018-12-16T02:18:25.795Z,-1001.38
2018-12-16T02:19:25.896Z,-991.54
2018-12-16T02:20:25.967Z,-999.51
2018-12-16T02:21:26.036Z,-998.45
2018-12-16T02:22:26.133Z,-1001.11
2018-12-16T02:23:26.181Z,-996.82
2018-12-16T02:24:26.237Z,-997.09
2018-12-16T02:25:26.399Z,-994.59
2018-12-16T02:26:26.380Z,-994.11
2018-12-16T02:27:26.468Z,-995.88
2018-12-16T02:28:26.527Z,-1000.07
2018-12-16T02:29:26.570Z,-995.84
2018-12-16T02:30:26.671Z,-997.33
2018-12-16T02:31:26.753Z,-1000.58
2018-12-16T02:32:26.848Z,-993.17
2018-12-16T02:33:27.037Z,-998.96
2018-12-16T02:34:26.953Z,-996.16
2018-12-16T02:35:27.053Z,-999.32
2018-12-16T02:36:27.096Z,-999.93
2018-12-16T02:37:27.191Z,-996.32
2018-12-16T02:38:27.274Z,-999.14
2018-12-16T02:39:27.315Z,-1003.57
2018-12-16T02:40:27.390Z,-1001.23
2018-12-16T02:41:27.502Z,-1002.24
2018-12-16T02:42:27.536Z,-1003.07
2018-12-16T02:43:27.624Z,-999.80
2018-12-16T02:44:27.666Z,-994.37
2018-12-16T02:45:27.752Z,-1002.34
2018-12-16T02:46:27.789Z,-999.93
2018-12-16T02:47:27.893Z,-1000.86
2018-12-16T02:48:27.981Z,-997.89
2018-12-16T02:49:28.054Z,-998.52
2018-12-16T02:50:28.105Z,-1000.20
2018-12-16T02:51:28.156Z,-1005.74
2018-12-16T02:52:28.232Z,-1006.45
2018-12-16T02:53:28.301Z,-1003.85
2018-12-16T02:54:28.371Z,-1003.13
2018-12-16T02:55:28.460Z,-1000.68
2018-12-16T02:56:28.508Z,-998.02
2018-12-16T02:57:28.632Z,-1000.07
2018-12-16T02:58:28.703Z,-1000.89
2018-12-16T02:59:28.720Z,-1001.31
2018-12-16T03:00:28.813Z,-1001.44
2018-12-16T03:01:28.955Z,-997.08
2018-12-16T03:02:28.955Z,-995.67
2018-12-16T03:03:29.018Z,-998.97
2018-12-16T03:04:29.071Z,-995.61
2018-12-16T03:05:29.165Z,-997.63
2018-12-16T03:06:29.363Z,-1000.50
2018-12-16T03:07:29.277Z,-998.41
2018-12-16T03:08:29.367Z,-995.19
2018-12-16T03:09:29.416Z,-992.12
2018-12-16T03:10:29.498Z,-993.38
2018-12-16T03:11:29.555Z,-993.88
2018-12-16T03:12:29.644Z,-991.97
2018-12-16T03:13:29.705Z,-995.04
2018-12-16T03:14:29.815Z,-994.31
2018-12-16T03:15:29.836Z,-997.21
2018-12-16T03:16:29.892Z,-992.90
2018-12-16T03:17:29.985Z,-995.11
2018-12-16T03:18:30.059Z,-993.68
2018-12-16T03:19:30.085Z,-994.14
2018-12-16T03:20:30.190Z,-994.72
2018-12-16T03:21:30.245Z,-988.21
2018-12-16T03:22:30.378Z,-992.74
2018-12-16T03:23:30.387Z,-991.66
2018-12-16T03:24:30.670Z,-993.78
2018-12-16T03:25:30.515Z,-992.07
2018-12-16T03:26:35.881Z,-937.29
2018-12-16T03:27:31.662Z,-938.78
2018-12-16T03:28:30.744Z,-937.42
2018-12-16T03:29:30.797Z,-933.22
2018-12-16T03:30:30.934Z,-934.69
2018-12-16T03:31:30.956Z,-938.12
2018-12-16T03:32:31.028Z,-931.20
2018-12-16T03:33:31.115Z,-935.86
2018-12-16T03:34:31.180Z,-936.98
2018-12-16T03:35:31.266Z,-936.69
2018-12-16T03:36:31.301Z,-938.99
2018-12-16T03:37:31.369Z,-932.65
2018-12-16T03:38:31.510Z,-935.06
2018-12-16T03:39:31.705Z,-934.58
2018-12-16T03:40:31.629Z,-937.05
2018-12-16T03:41:31.663Z,-935.27
2018-12-16T03:42:31.750Z,-931.60
2018-12-16T03:43:31.853Z,-934.07
2018-12-16T03:44:31.934Z,-930.10
2018-12-16T03:45:31.990Z,-935.33
2018-12-16T03:46:32.041Z,-935.44
2018-12-16T03:47:32.220Z,-934.15
2018-12-16T03:48:32.207Z,-933.36
2018-12-16T03:49:32.280Z,-935.83
2018-12-16T03:50:32.349Z,-935.25
2018-12-16T03:51:32.396Z,-935.27
2018-12-16T03:52:32.450Z,-932.94
2018-12-16T03:53:32.553Z,-932.40
2018-12-16T03:54:32.638Z,-929.17
2018-12-16T03:55:32.743Z,-937.20
2018-12-16T03:56:32.727Z,-941.26
2018-12-16T03:57:32.808Z,-937.09
2018-12-16T03:58:32.871Z,-934.52
2018-12-16T03:59:32.966Z,-934.05
2018-12-16T04:00:33.034Z,-933.15
2018-12-16T04:01:33.080Z,-938.18
2018-12-16T04:02:33.150Z,-936.95
2018-12-16T04:03:33.266Z,-934.53
2018-12-16T04:04:33.292Z,-935.52
2018-12-16T04:05:33.374Z,-932.10
2018-12-16T04:06:33.424Z,-933.47
2018-12-16T04:07:33.500Z,-934.28
2018-12-16T04:08:33.595Z,-937.59
2018-12-16T04:09:33.676Z,-926.64
2018-12-16T04:10:33.714Z,-928.32
2018-12-16T04:11:33.805Z,-929.11
2018-12-16T04:12:33.961Z,-933.38
2018-12-16T04:13:33.939Z,-934.90
2018-12-16T04:14:34.022Z,-932.42
2018-12-16T04:15:34.063Z,-930.77
2018-12-16T04:16:34.134Z,-931.79
2018-12-16T04:17:34.200Z,-934.16
2018-12-16T04:18:34.289Z,-931.75
2018-12-16T04:19:34.356Z,-931.73
2018-12-16T04:20:34.518Z,-932.54
2018-12-16T04:21:34.482Z,-932.86
2018-12-16T04:22:34.552Z,-933.42
2018-12-16T04:23:34.633Z,-934.46
2018-12-16T04:24:34.697Z,-932.11
2018-12-16T04:25:34.766Z,-926.33
2018-12-16T04:26:34.804Z,-932.78
2018-12-16T04:27:34.896Z,-928.81
2018-12-16T04:28:35.041Z,-921.07
2018-12-16T04:29:35.027Z,-926.73
2018-12-16T04:30:35.074Z,-934.05
2018-12-16T04:31:35.147Z,-931.94
2018-12-16T04:32:35.231Z,-933.72
2018-12-16T04:33:35.316Z,-935.39
2018-12-16T04:34:35.392Z,-934.93
2018-12-16T04:35:35.440Z,-931.97
2018-12-16T04:36:35.528Z,-933.96
2018-12-16T04:37:35.561Z,-935.50
2018-12-16T04:38:35.668Z,-935.79
2018-12-16T04:39:35.754Z,-925.83
2018-12-16T04:40:35.792Z,-935.65
2018-12-16T04:41:35.882Z,-934.13
2018-12-16T04:42:35.927Z,-930.51
2018-12-16T04:43:36.016Z,-933.00
2018-12-16T04:44:36.201Z,-936.75
2018-12-16T04:45:36.173Z,-929.45
2018-12-16T04:46:36.243Z,-932.82
2018-12-16T04:47:36.298Z,-930.42
2018-12-16T04:48:36.366Z,-934.14
2018-12-16T04:49:36.447Z,-931.98
2018-12-16T04:50:36.507Z,-934.29
2018-12-16T04:51:36.592Z,-935.85
2018-12-16T04:52:36.662Z,-934.37
2018-12-16T04:53:37.198Z,-935.80
2018-12-16T04:54:36.854Z,-933.87
2018-12-16T04:55:36.852Z,-933.59
2018-12-16T04:56:36.937Z,-934.91
2018-12-16T04:57:36.993Z,-931.53
2018-12-16T04:58:37.078Z,-934.83
2018-12-16T04:59:37.144Z,-936.88
2018-12-16T05:00:37.184Z,-932.35
2018-12-16T05:01:37.395Z,-932.89
2018-12-16T05:02:37.554Z,-930.60
2018-12-16T05:03:37.420Z,-925.30
2018-12-16T05:04:37.501Z,-932.80
2018-12-16T05:05:37.551Z,-933.51
2018-12-16T05:06:37.648Z,-933.68
2018-12-16T05:07:37.697Z,-932.14
2018-12-16T05:08:37.789Z,-935.56
2018-12-16T05:09:37.890Z,-932.16
2018-12-16T05:10:37.897Z,-930.36
2018-12-16T05:11:38.011Z,-928.91
2018-12-16T05:12:38.056Z,-930.21
2018-12-16T05:13:38.142Z,-931.18
2018-12-16T05:14:38.228Z,-933.78
2018-12-16T05:15:38.262Z,-930.52
2018-12-16T05:16:38.338Z,-933.62
2018-12-16T05:17:38.460Z,-937.01
2018-12-16T05:18:38.472Z,-935.87
2018-12-16T05:19:38.569Z,-937.56
2018-12-16T05:20:38.596Z,-941.21
2018-12-16T05:21:38.689Z,-937.72
2018-12-16T05:22:38.725Z,-937.28
2018-12-16T05:23:41.858Z,-936.65
2018-12-16T05:24:38.924Z,-935.80
2018-12-16T05:25:38.985Z,-935.74
2018-12-16T05:26:39.099Z,-934.56
2018-12-16T05:27:39.085Z,-932.64
2018-12-16T05:28:39.189Z,-933.14
2018-12-16T05:29:39.273Z,-928.99
2018-12-16T05:30:39.302Z,-935.19
2018-12-16T05:31:39.399Z,-930.45
2018-12-16T05:32:39.450Z,-932.85
2018-12-16T05:33:39.533Z,-933.08
2018-12-16T05:34:39.737Z,-932.34
2018-12-16T05:35:39.666Z,-933.93
2018-12-16T05:36:39.756Z,-933.78
2018-12-16T05:37:39.791Z,-930.69
2018-12-16T05:38:39.863Z,-935.41
2018-12-16T05:39:39.971Z,-935.25
2018-12-16T05:40:40.012Z,-933.47
2018-12-16T05:41:40.101Z,-939.66
2018-12-16T05:42:40.297Z,-936.90
2018-12-16T05:43:40.217Z,-935.15
2018-12-16T05:44:40.353Z,-933.74
2018-12-16T05:45:40.392Z,-937.93
2018-12-16T05:46:40.478Z,-932.48
2018-12-16T05:47:40.533Z,-934.79
2018-12-16T05:48:40.600Z,-941.01
2018-12-16T05:49:40.704Z,-939.48
2018-12-16T05:50:40.810Z,-934.91
2018-12-16T05:51:40.826Z,-933.45
2018-12-16T05:52:40.885Z,-932.81
2018-12-16T05:53:40.956Z,-934.48
2018-12-16T05:54:41.051Z,-935.52
2018-12-16T05:55:41.086Z,-937.12
2018-12-16T05:56:41.173Z,-935.65
2018-12-16T05:57:41.240Z,-929.79
2018-12-16T05:58:41.344Z,-935.00
2018-12-16T05:59:41.367Z,-935.07
2018-12-16T06:00:41.428Z,-935.05
2018-12-16T06:01:41.525Z,-932.55
2018-12-16T06:02:41.584Z,-935.90
2018-12-16T06:03:41.664Z,-930.10
2018-12-16T06:04:41.751Z,-931.62
2018-12-16T06:05:41.826Z,-935.46
2018-12-16T06:06:41.888Z,-936.52
2018-12-16T06:07:41.986Z,-937.32
2018-12-16T06:08:42.008Z,-932.69
2018-12-16T06:09:42.107Z,-941.12
2018-12-16T06:10:42.157Z,-935.90
2018-12-16T06:11:42.219Z,-936.59
2018-12-16T06:12:42.286Z,-936.49
2018-12-16T06:13:42.374Z,-935.02
2018-12-16T06:14:42.464Z,-937.93
2018-12-16T06:15:42.655Z,-938.34
2018-12-16T06:16:42.592Z,-942.30
2018-12-16T06:17:42.656Z,-934.39
2018-12-16T06:18:42.724Z,-938.14
2018-12-16T06:19:42.816Z,-935.01
2018-12-16T06:20:42.901Z,-939.68
2018-12-16T06:21:42.964Z,-937.66
2018-12-16T06:22:42.999Z,-938.31
2018-12-16T06:23:43.253Z,-935.78
2018-12-16T06:24:43.200Z,-937.21
2018-12-16T06:25:43.226Z,-934.82
2018-12-16T06:26:43.315Z,-936.57
2018-12-16T06:27:43.367Z,-938.20
2018-12-16T06:28:43.425Z,-928.96
2018-12-16T06:29:43.551Z,-937.65
2018-12-16T06:30:43.580Z,-933.71
2018-12-16T06:31:43.694Z,-934.09
2018-12-16T06:32:43.698Z,-936.13
2018-12-16T06:33:43.760Z,-937.07
2018-12-16T06:34:43.881Z,-934.28
2018-12-16T06:35:43.915Z,-939.18
2018-12-16T06:36:43.998Z,-934.29
2018-12-16T06:37:44.049Z,-935.15
2018-12-16T06:38:48.459Z,-941.32
2018-12-16T06:39:44.268Z,-934.41
2018-12-16T06:40:44.239Z,-938.27
2018-12-16T06:41:44.577Z,-939.76
2018-12-16T06:42:44.407Z,-936.87
2018-12-16T06:43:44.478Z,-936.66
2018-12-16T06:44:44.654Z,-936.24
2018-12-16T06:45:44.614Z,-938.00
2018-12-16T06:46:44.686Z,-936.36
2018-12-16T06:47:44.821Z,-933.92
2018-12-16T06:48:44.921Z,-939.88
2018-12-16T06:49:44.937Z,-936.22
2018-12-16T06:50:45.012Z,-935.91
2018-12-16T06:51:45.036Z,-938.28
2018-12-16T06:52:45.120Z,-939.39
2018-12-16T06:53:45.193Z,-940.29
2018-12-16T06:54:45.304Z,-938.65
2018-12-16T06:55:45.329Z,-940.76
2018-12-16T06:56:45.563Z,-936.65
2018-12-16T06:57:45.513Z,-936.36
2018-12-16T06:58:45.581Z,-937.21
2018-12-16T06:59:45.701Z,-935.18
2018-12-16T07:00:45.734Z,-940.19
2018-12-16T07:01:45.803Z,-940.57
2018-12-16T07:02:45.871Z,-939.46
2018-12-16T07:03:45.959Z,-946.81
2018-12-16T07:04:46.172Z,-941.79
2018-12-16T07:05:46.096Z,-940.24
2018-12-16T07:06:46.159Z,-939.83
2018-12-16T07:07:46.232Z,-939.08
2018-12-16T07:08:46.388Z,-936.98
2018-12-16T07:09:46.402Z,-936.65
2018-12-16T07:10:46.485Z,-938.59
2018-12-16T07:11:46.528Z,-945.14
2018-12-16T07:12:46.639Z,-937.58
2018-12-16T07:13:46.632Z,-944.64
2018-12-16T07:14:46.763Z,-937.91
2018-12-16T07:15:46.813Z,-936.43
2018-12-16T07:16:46.860Z,-941.26
2018-12-16T07:17:46.953Z,-938.79
2018-12-16T07:18:47.010Z,-936.14
2018-12-16T07:19:47.097Z,-938.82
2018-12-16T07:20:47.226Z,-937.92
2018-12-16T07:21:47.253Z,-943.19
2018-12-16T07:22:47.312Z,-940.22
2018-12-16T07:23:47.368Z,-941.93
2018-12-16T07:24:47.435Z,-940.77
2018-12-16T07:25:47.498Z,-944.41
2018-12-16T07:26:48.047Z,-944.18
2018-12-16T07:27:47.662Z,-944.06
2018-12-16T07:28:47.723Z,-939.08
2018-12-16T07:29:47.936Z,-939.62
2018-12-16T07:30:47.921Z,-938.57
2018-12-16T07:31:47.946Z,-936.41
2018-12-16T07:32:48.027Z,-932.99
2018-12-16T07:33:48.080Z,-936.67
2018-12-16T07:34:48.176Z,-937.60
2018-12-16T07:35:48.205Z,-931.03
2018-12-16T07:36:48.279Z,-931.90
2018-12-16T07:37:48.516Z,-933.45
2018-12-16T07:38:48.433Z,-939.78
2018-12-16T07:39:48.531Z,-936.50
2018-12-16T07:40:48.639Z,-939.24
2018-12-16T07:41:48.683Z,-942.82
2018-12-16T07:42:48.725Z,-937.53
2018-12-16T07:43:48.791Z,-938.22
2018-12-16T07:44:48.907Z,-940.68
2018-12-16T07:45:48.997Z,-937.21
2018-12-16T07:46:48.966Z,-942.24
2018-12-16T07:47:49.084Z,-943.06
2018-12-16T07:48:49.121Z,-939.48
2018-12-16T07:49:49.207Z,-942.03
2018-12-16T07:50:49.260Z,-942.03
2018-12-16T07:51:49.359Z,-943.01
2018-12-16T07:52:49.454Z,-940.94
2018-12-16T07:53:49.611Z,-937.24
2018-12-16T07:54:49.552Z,-940.18
2018-12-16T07:55:49.642Z,-948.89
2018-12-16T07:56:49.687Z,-936.52
2018-12-16T07:57:49.782Z,-938.54
2018-12-16T07:58:49.817Z,-940.86
2018-12-16T07:59:49.904Z,-940.03
2018-12-16T08:00:50.015Z,-937.30
2018-12-16T08:01:50.080Z,-937.41
2018-12-16T08:02:50.435Z,-937.83
2018-12-16T08:03:50.152Z,-941.71
2018-12-16T08:04:50.288Z,-938.55
2018-12-16T08:05:50.323Z,-942.26
2018-12-16T08:06:50.404Z,-941.10
2018-12-16T08:07:50.467Z,-939.57
2018-12-16T08:08:50.516Z,-939.37
2018-12-16T08:09:50.580Z,-936.81
2018-12-16T08:10:50.747Z,-942.55
2018-12-16T08:11:50.737Z,-938.37
2018-12-16T08:12:50.812Z,-936.55
2018-12-16T08:13:50.849Z,-938.44
2018-12-16T08:14:50.919Z,-937.61
2018-12-16T08:15:51.028Z,-940.64
2018-12-16T08:16:52.041Z,-940.31
2018-12-16T08:17:51.654Z,-944.12
2018-12-16T08:18:51.365Z,-936.32
2018-12-16T08:19:51.308Z,-937.16
2018-12-16T08:20:51.417Z,-941.12
2018-12-16T08:21:51.777Z,-941.40
2018-12-16T08:22:51.751Z,-938.11
2018-12-16T08:23:51.649Z,-934.49
2018-12-16T08:24:51.880Z,-933.82
2018-12-16T08:25:51.748Z,-939.42
2018-12-16T08:26:51.822Z,-936.71
2018-12-16T08:27:51.951Z,-936.63
2018-12-16T08:28:51.944Z,-937.07
2018-12-16T08:29:52.296Z,-935.82
2018-12-16T08:30:53.259Z,-942.31
2018-12-16T08:31:52.303Z,-988.89
2018-12-16T08:32:52.341Z,-992.22
2018-12-16T08:33:53.235Z,-991.12
2018-12-16T08:34:53.145Z,-987.77
2018-12-16T08:35:52.474Z,-987.96
2018-12-16T08:36:52.474Z,-989.88
2018-12-16T08:37:52.552Z,-983.97
2018-12-16T08:38:52.619Z,-986.11
2018-12-16T08:39:52.690Z,-989.28
2018-12-16T08:40:52.769Z,-987.69
2018-12-16T08:41:52.840Z,-989.47
2018-12-16T08:42:52.932Z,-991.93
2018-12-16T08:43:53.069Z,-989.59
2018-12-16T08:44:53.042Z,-993.15
2018-12-16T08:45:53.126Z,-987.26
2018-12-16T08:46:53.189Z,-990.34
2018-12-16T08:47:53.265Z,-987.17
2018-12-16T08:48:53.300Z,-987.78
2018-12-16T08:49:53.387Z,-990.34
2018-12-16T08:50:53.469Z,-993.12
2018-12-16T08:51:53.618Z,-987.14
2018-12-16T08:52:53.595Z,-989.16
2018-12-16T08:53:53.667Z,-995.47
2018-12-16T08:54:53.755Z,-994.13
2018-12-16T08:55:53.845Z,-987.80
2018-12-16T08:56:53.923Z,-992.49
2018-12-16T08:57:53.998Z,-989.97
2018-12-16T08:58:54.036Z,-988.86
2018-12-16T08:59:54.186Z,-986.21
2018-12-16T09:00:54.183Z,-990.62
2018-12-16T09:01:54.263Z,-987.40
2018-12-16T09:02:54.318Z,-990.73
2018-12-16T09:03:54.370Z,-986.92
2018-12-16T09:04:54.426Z,-981.75
2018-12-16T09:05:54.526Z,-983.33
2018-12-16T09:06:54.612Z,-982.76
2018-12-16T09:07:54.739Z,-983.62
2018-12-16T09:08:54.726Z,-981.92
2018-12-16T09:09:54.794Z,-987.16
2018-12-16T09:10:54.867Z,-983.18
2018-12-16T09:11:54.966Z,-983.63
2018-12-16T09:12:55.031Z,-980.60
2018-12-16T09:13:55.101Z,-979.97
2018-12-16T09:14:55.166Z,-988.44
2018-12-16T09:15:55.281Z,-983.88
2018-12-16T09:16:55.703Z,-987.03
2018-12-16T09:17:55.378Z,-983.28
2018-12-16T09:18:55.473Z,-988.53
2018-12-16T09:19:55.536Z,-985.51
2018-12-16T09:20:55.622Z,-986.29
2018-12-16T09:21:55.662Z,-980.98
2018-12-16T09:22:55.883Z,-980.41
2018-12-16T09:23:55.858Z,-990.84
2018-12-16T09:24:56.028Z,-988.09
2018-12-16T09:25:56.030Z,-989.87
2018-12-16T09:26:56.038Z,-972.16
2018-12-16T09:27:56.122Z,-980.41
2018-12-16T09:28:56.207Z,-986.41
2018-12-16T09:29:56.260Z,-976.61
2018-12-16T09:30:58.113Z,-993.09
2018-12-16T09:31:56.402Z,-992.78
2018-12-16T09:32:56.567Z,-981.52
2018-12-16T09:33:56.549Z,-984.48
2018-12-16T09:34:56.596Z,-981.80
2018-12-16T09:35:56.692Z,-978.14
2018-12-16T09:36:56.736Z,-980.34
2018-12-16T09:37:56.805Z,-985.87
2018-12-16T09:38:56.897Z,-985.35
2018-12-16T09:39:56.947Z,-988.42
2018-12-16T09:40:57.102Z,-978.81
2018-12-16T09:41:57.066Z,-981.11
2018-12-16T09:42:57.175Z,-977.18
2018-12-16T09:43:57.215Z,-979.75
2018-12-16T09:44:57.287Z,-988.31
2018-12-16T09:45:57.419Z,-994.09
2018-12-16T09:46:57.438Z,-987.93
2018-12-16T09:47:57.500Z,-983.36
2018-12-16T09:48:57.637Z,-989.18
2018-12-16T09:49:57.606Z,-986.50
2018-12-16T09:50:57.721Z,-993.25
2018-12-16T09:51:57.780Z,-988.41
2018-12-16T09:52:57.857Z,-984.55
2018-12-16T09:53:57.937Z,-989.97
2018-12-16T09:54:57.991Z,-992.67
2018-12-16T09:55:58.284Z,-991.48
2018-12-16T09:56:58.128Z,-985.46
2018-12-16T09:57:58.460Z,-983.25
2018-12-16T09:58:58.283Z,-987.61
2018-12-16T09:59:58.359Z,-989.27
2018-12-16T10:00:58.406Z,-985.23
2018-12-16T10:01:58.472Z,-986.94
2018-12-16T10:02:58.573Z,-988.88
2018-12-16T10:03:58.656Z,-987.37
2018-12-16T10:04:58.709Z,-997.16
2018-12-16T10:05:58.864Z,-991.19
2018-12-16T10:06:58.829Z,-988.06
2018-12-16T10:07:58.914Z,-985.20
2018-12-16T10:08:58.997Z,-984.26
2018-12-16T10:09:59.042Z,-987.25
2018-12-16T10:10:59.134Z,-988.51
2018-12-16T10:11:59.174Z,-987.31
2018-12-16T10:12:59.250Z,-988.12
2018-12-16T10:13:59.476Z,-988.42
2018-12-16T10:14:59.389Z,-988.34
2018-12-16T10:15:59.487Z,-987.87
2018-12-16T10:16:59.524Z,-986.19
2018-12-16T10:17:59.592Z,-993.37
2018-12-16T10:18:59.700Z,-993.04
2018-12-16T10:19:59.750Z,-987.14
2018-12-16T10:20:59.826Z,-985.32
2018-12-16T10:21:59.920Z,-990.68
2018-12-16T10:22:59.914Z,-988.10
2018-12-16T10:24:00.043Z,-988.06
2018-12-16T10:25:00.102Z,-985.84
2018-12-16T10:26:00.170Z,-987.34
2018-12-16T10:27:00.252Z,-991.06
2018-12-16T10:28:00.323Z,-993.00
2018-12-16T10:29:00.413Z,-979.90
2018-12-16T10:30:00.482Z,-983.61
2018-12-16T10:31:00.537Z,-988.05
2018-12-16T10:32:00.617Z,-988.20
2018-12-16T10:33:00.691Z,-989.84
2018-12-16T10:34:00.786Z,-995.43
2018-12-16T10:35:00.818Z,-989.06
2018-12-16T10:36:00.900Z,-1001.77
2018-12-16T10:37:00.991Z,-998.66
2018-12-16T10:38:01.056Z,-993.20
2018-12-16T10:39:01.920Z,-992.77
2018-12-16T10:40:01.162Z,-991.46
2018-12-16T10:41:01.251Z,-991.99
2018-12-16T10:42:01.339Z,-988.74
2018-12-16T10:43:01.385Z,-988.25
2018-12-16T10:44:01.480Z,-990.42
2018-12-16T10:45:01.524Z,-984.43
2018-12-16T10:46:01.572Z,-987.65
2018-12-16T10:47:01.780Z,-979.90
2018-12-16T10:48:01.722Z,-985.57
2018-12-16T10:49:04.793Z,-976.89
2018-12-16T10:50:01.872Z,-983.76
2018-12-16T10:51:01.928Z,-986.74
2018-12-16T10:52:02.020Z,-987.21
2018-12-16T10:53:02.081Z,-989.81
2018-12-16T10:54:02.169Z,-987.80
2018-12-16T10:55:02.280Z,-988.27
2018-12-16T10:56:02.260Z,-986.37
2018-12-16T10:57:02.365Z,-985.11
2018-12-16T10:58:02.417Z,-992.77
2018-12-16T10:59:02.515Z,-985.68
2018-12-16T11:00:02.559Z,-989.57
2018-12-16T11:01:02.630Z,-984.85
2018-12-16T11:02:02.697Z,-983.04
2018-12-16T11:03:02.789Z,-991.94
2018-12-16T11:04:02.844Z,-989.43
2018-12-16T11:05:02.888Z,-988.58
2018-12-16T11:06:02.957Z,-985.08
2018-12-16T11:07:03.047Z,-988.20
2018-12-16T11:08:03.090Z,-985.82
2018-12-16T11:09:03.224Z,-983.31
2018-12-16T11:10:03.260Z,-986.33
2018-12-16T11:11:03.356Z,-987.27
2018-12-16T11:12:03.482Z,-981.14
2018-12-16T11:13:03.456Z,-984.14
2018-12-16T11:14:03.604Z,-978.53
2018-12-16T11:15:03.615Z,-981.47
2018-12-16T11:16:03.686Z,-985.02
2018-12-16T11:17:03.782Z,-980.17
2018-12-16T11:18:03.831Z,-982.38
2018-12-16T11:19:03.946Z,-978.38
2018-12-16T11:20:04.081Z,-977.41
2018-12-16T11:21:04.056Z,-977.10
2018-12-16T11:22:04.142Z,-979.49
2018-12-16T11:23:04.198Z,-979.35
2018-12-16T11:24:04.241Z,-980.96
2018-12-16T11:25:05.807Z,-976.13
2018-12-16T11:26:04.396Z,-983.17
2018-12-16T11:27:04.488Z,-980.02
2018-12-16T11:28:04.659Z,-985.55
2018-12-16T11:29:04.586Z,-980.64
2018-12-16T11:30:04.701Z,-978.97
2018-12-16T11:31:04.778Z,-974.42
2018-12-16T11:32:04.864Z,-978.77
2018-12-16T11:33:04.915Z,-981.95
2018-12-16T11:34:04.986Z,-975.53
2018-12-16T11:35:05.303Z,-974.98
2018-12-16T11:36:05.373Z,-984.47
2018-12-16T11:37:05.432Z,-979.98
2018-12-16T11:38:05.490Z,-983.77
2018-12-16T11:39:05.562Z,-975.19
2018-12-16T11:40:05.681Z,-978.47
2018-12-16T11:41:05.709Z,-982.97
2018-12-16T11:42:05.771Z,-981.49
2018-12-16T11:43:05.834Z,-985.92
2018-12-16T11:44:05.973Z,-976.06
2018-12-16T11:45:06.016Z,-976.45
2018-12-16T11:46:06.035Z,-982.43
2018-12-16T11:47:06.114Z,-987.71
2018-12-16T11:48:06.179Z,-987.64
2018-12-16T11:49:06.265Z,-983.16
2018-12-16T11:50:06.385Z,-984.63
2018-12-16T11:51:06.402Z,-982.22
2018-12-16T11:52:06.533Z,-982.55
2018-12-16T11:53:06.615Z,-988.88
2018-12-16T11:54:06.617Z,-981.67
2018-12-16T11:55:12.522Z,-980.52
2018-12-16T11:56:07.808Z,-977.27
2018-12-16T11:57:06.853Z,-987.48
2018-12-16T11:58:06.892Z,-981.94
2018-12-16T11:59:07.009Z,-966.69
2018-12-16T12:00:07.151Z,-971.87
2018-12-16T12:01:07.218Z,-978.03
2018-12-16T12:02:07.184Z,-978.86
2018-12-16T12:03:07.222Z,-972.81
2018-12-16T12:04:07.306Z,-970.33
2018-12-16T12:05:07.442Z,-980.27
2018-12-16T12:06:07.472Z,-980.75